Time;durP1;ratioP1;P1;durP2;ratioP2;P2;SDS_P1;SDS_P2;PMS_P1;PMS_P2;Temp;Humidity;BMP_temperature;BMP_pressure;BME280_temperature;BME280_humidity;BME280_pressure;Samples;Min_cycle;Max_cycle;Signal;HPM_P1;HPM_P2
2023/03/16 00:01:21;;;;;;;7.72;3.88;;;7.00;1.00;;;;;;5056073;28;20033;-71
2023/03/16 00:03:46;;;;;;;8.38;3.70;;;6.90;1.00;;;;;;5056610;28;20404;-73
2023/03/16 00:06:12;;;;;;;5.00;4.00;;;7.00;1.00;;;;;;5055923;28;20278;-71
2023/03/16 00:08:38;;;;;;;5.50;4.00;;;7.00;1.00;;;;;;5055843;28;20036;-72
2023/03/16 00:11:04;;;;;;;6.22;3.85;;;7.00;1.00;;;;;;5055870;28;20065;-73
2023/03/16 00:13:31;;;;;;;5.18;3.88;;;7.10;1.00;;;;;;5055843;28;20396;-70
2023/03/16 00:16:00;;;;;;;4.15;3.40;;;7.10;1.00;;;;;;5056784;28;20110;-72
2023/03/16 00:18:28;;;;;;;7.03;3.88;;;7.10;1.00;;;;;;5039149;28;20091;-72
2023/03/16 00:21:00;;;;;;;8.32;3.58;;;7.00;1.00;;;;;;5055863;28;20044;-74
2023/03/16 00:23:27;;;;;;;5.28;3.47;;;7.00;1.00;;;;;;5039135;28;20301;-69
2023/03/16 00:25:55;;;;;;;6.38;3.45;;;7.00;1.00;;;;;;5056377;28;20100;-69
2023/03/16 00:28:22;;;;;;;6.65;3.53;;;7.00;1.00;;;;;;5056508;28;20029;-72
2023/03/16 00:30:48;;;;;;;3.90;3.13;;;7.00;1.00;;;;;;5039222;28;20295;-72
2023/03/16 00:33:14;;;;;;;4.30;3.60;;;7.00;1.00;;;;;;5039326;28;20086;-72
2023/03/16 00:35:49;;;;;;;6.43;3.42;;;7.00;1.00;;;;;;5055649;28;20064;-72
2023/03/16 00:38:19;;;;;;;7.10;3.50;;;7.00;1.00;;;;;;5055599;28;20033;-70
2023/03/16 00:40:46;;;;;;;4.28;3.40;;;7.00;1.00;;;;;;5055485;28;20079;-72
2023/03/16 00:43:17;;;;;;;4.13;3.05;;;7.00;5.80;;;;;;5056126;28;20028;-69
2023/03/16 00:45:43;;;;;;;4.80;3.17;;;7.00;2.20;;;;;;5055624;28;20094;-73
2023/03/16 00:48:10;;;;;;;6.13;3.13;;;7.00;10.80;;;;;;5039192;28;20028;-72
2023/03/16 00:50:37;;;;;;;5.82;3.22;;;7.00;10.90;;;;;;5022712;28;20471;-72
2023/03/16 00:53:02;;;;;;;5.65;3.15;;;6.90;14.40;;;;;;5041554;28;20032;-70
2023/03/16 00:55:28;;;;;;;8.27;3.70;;;7.00;16.40;;;;;;5058992;28;20060;-73
2023/03/16 00:57:54;;;;;;;5.68;3.10;;;7.00;18.40;;;;;;5059041;28;20033;-69
2023/03/16 01:00:22;;;;;;;8.50;3.30;;;6.90;17.60;;;;;;5042326;28;20305;-69
2023/03/16 01:02:48;;;;;;;3.88;2.97;;;6.90;18.70;;;;;;5059004;28;20099;-71
2023/03/16 01:05:14;;;;;;;4.93;3.00;;;6.90;21.60;;;;;;5059585;28;20041;-70
2023/03/16 01:07:41;;;;;;;4.32;2.60;;;6.90;17.00;;;;;;5059517;28;20036;-70
2023/03/16 01:10:10;;;;;;;6.25;2.63;;;6.90;18.80;;;;;;5059005;28;20041;-71
2023/03/16 01:12:36;;;;;;;5.45;3.10;;;6.90;20.10;;;;;;5058831;28;20322;-70
2023/03/16 01:15:02;;;;;;;4.35;2.70;;;6.90;22.30;;;;;;5059348;28;20116;-72
2023/03/16 01:17:28;;;;;;;4.82;2.72;;;6.90;26.80;;;;;;5059373;28;20049;-71
2023/03/16 01:19:53;;;;;;;5.30;3.15;;;6.90;26.30;;;;;;5059402;28;20057;-68
2023/03/16 01:22:20;;;;;;;4.07;2.53;;;6.90;24.10;;;;;;5041866;28;20033;-71
2023/03/16 01:24:46;;;;;;;6.35;3.13;;;6.90;25.50;;;;;;5041735;28;20091;-72
2023/03/16 01:27:13;;;;;;;5.70;2.78;;;7.00;27.20;;;;;;5058536;28;20029;-72
2023/03/16 01:29:42;;;;;;;5.07;2.70;;;7.00;23.00;;;;;;5041831;28;20040;-73
2023/03/16 01:32:09;;;;;;;3.83;2.90;;;7.00;22.00;;;;;;5058324;28;20356;-71
2023/03/16 01:34:35;;;;;;;4.82;2.90;;;7.00;20.50;;;;;;5058212;28;20033;-71
2023/03/16 01:37:02;;;;;;;4.00;2.45;;;7.00;23.00;;;;;;5041806;28;20036;-71
2023/03/16 01:39:39;;;;;;;7.10;3.20;;;7.00;26.80;;;;;;5058245;28;20060;-69
2023/03/16 01:42:06;;;;;;;3.45;2.63;;;7.00;26.70;;;;;;5058155;28;20033;-72
2023/03/16 01:44:54;;;;;;;5.97;2.72;;;7.00;28.20;;;;;;5041442;28;20040;-72
2023/03/16 01:47:21;;;;;;;6.20;2.67;;;7.00;26.20;;;;;;5058197;28;20122;-70
2023/03/16 01:49:49;;;;;;;4.65;2.72;;;7.00;24.10;;;;;;5058771;28;20099;-71
2023/03/16 01:52:23;;;;;;;5.32;2.60;;;7.00;27.00;;;;;;5058868;28;20044;-73
2023/03/16 01:55:00;;;;;;;4.93;2.50;;;7.00;30.70;;;;;;5059026;28;20063;-72
2023/03/16 01:57:29;;;;;;;7.03;2.67;;;7.00;30.70;;;;;;5041418;28;20029;-72
2023/03/16 02:00:13;;;;;;;5.18;2.40;;;7.10;27.00;;;;;;5041323;28;20029;-72
2023/03/16 02:02:55;;;;;;;3.60;2.58;;;7.10;28.40;;;;;;5057942;28;20032;-71
2023/03/16 02:05:53;;;;;;;7.32;2.60;;;7.10;24.80;;;;;;5057457;28;20182;-69
2023/03/16 02:08:21;;;;;;;4.82;2.42;;;7.10;26.40;;;;;;5057737;28;20025;-71
2023/03/16 02:10:48;;;;;;;9.48;3.08;;;7.00;28.60;;;;;;5041135;28;20347;-72
2023/03/16 02:13:15;;;;;;;5.00;2.40;;;7.00;28.70;;;;;;5057565;28;20393;-73
2023/03/16 02:15:40;;;;;;;3.25;2.20;;;7.10;30.30;;;;;;5057495;28;20025;-71
2023/03/16 02:18:07;;;;;;;9.07;2.85;;;7.10;28.90;;;;;;5041110;28;20355;-72
2023/03/16 02:20:42;;;;;;;4.43;2.30;;;7.10;27.60;;;;;;5040865;28;20295;-70
2023/03/16 02:23:17;;;;;;;4.13;2.28;;;7.00;30.10;;;;;;5057408;28;20363;-72
2023/03/16 02:25:59;;;;;;;6.72;2.67;;;7.00;31.10;;;;;;5057387;28;20036;-71
2023/03/16 02:28:50;;;;;;;5.63;2.70;;;7.00;34.00;;;;;;5041430;28;20319;-73
2023/03/16 02:31:16;;;;;;;4.68;2.58;;;7.00;32.40;;;;;;5057282;28;20416;-73
2023/03/16 02:33:44;;;;;;;5.72;2.90;;;7.00;35.20;;;;;;5040664;28;20115;-72
2023/03/16 02:36:13;;;;;;;4.18;2.30;;;7.00;34.90;;;;;;5040882;28;20040;-72
2023/03/16 02:38:40;;;;;;;6.10;2.67;;;7.00;36.10;;;;;;5057270;28;20408;-72
2023/03/16 02:41:11;;;;;;;5.47;2.30;;;7.00;40.00;;;;;;5040764;28;20052;-71
2023/03/16 02:43:41;;;;;;;3.55;2.40;;;7.00;38.70;;;;;;5058030;28;20403;-73
2023/03/16 02:46:16;;;;;;;5.75;2.33;;;7.10;43.40;;;;;;5041444;28;20029;-72
2023/03/16 02:48:52;;;;;;;6.70;2.35;;;7.00;42.70;;;;;;5057773;28;20047;-72
2023/03/16 02:51:19;;;;;;;3.40;2.40;;;7.00;47.00;;;;;;5040434;28;20431;-71
2023/03/16 02:53:45;;;;;;;4.05;2.25;;;7.00;51.00;;;;;;5040400;28;20282;-74
2023/03/16 02:56:11;;;;;;;6.13;2.22;;;7.10;53.60;;;;;;5023660;28;20426;-73
2023/03/16 02:58:37;;;;;;;3.90;2.10;;;7.20;53.00;;;;;;5040512;28;20060;-73
2023/03/16 03:01:08;;;;;;;5.03;2.25;;;7.10;54.80;;;;;;5056839;28;20041;-72
2023/03/16 03:03:34;;;;;;;6.97;2.42;;;7.10;58.90;;;;;;5056626;28;20282;-72
2023/03/16 03:06:01;;;;;;;5.78;2.40;;;7.10;64.20;;;;;;5056607;28;20082;-73
2023/03/16 03:08:31;;;;;;;7.50;2.45;;;7.00;64.70;;;;;;5056634;28;20036;-69
2023/03/16 03:10:58;;;;;;;4.82;2.63;;;7.00;75.50;;;;;;5007986;28;20043;-72
2023/03/16 03:13:24;;;;;;;6.85;2.45;;;7.00;78.60;;;;;;5056986;28;20029;-70
2023/03/16 03:15:51;;;;;;;4.43;2.45;;;7.10;84.50;;;;;;5056029;28;20086;-73
2023/03/16 03:18:18;;;;;;;4.40;2.25;;;7.10;81.60;;;;;;5040106;28;20065;-71
2023/03/16 03:20:44;;;;;;;5.30;2.28;;;7.10;91.70;;;;;;5039691;28;20071;-71
2023/03/16 03:23:10;;;;;;;5.32;2.30;;;7.00;89.60;;;;;;5056981;28;20274;-71
2023/03/16 03:25:36;;;;;;;5.75;2.13;;;7.00;94.60;;;;;;5056195;28;20430;-73
2023/03/16 03:28:07;;;;;;;4.28;2.20;;;7.00;95.50;;;;;;5023392;28;20072;-71
2023/03/16 03:30:33;;;;;;;3.25;1.85;;;7.10;96.00;;;;;;5056052;28;20040;-70
2023/03/16 03:33:00;;;;;;;3.67;2.13;;;7.00;97.90;;;;;;5056145;28;20090;-72
2023/03/16 03:35:26;;;;;;;3.30;2.30;;;7.10;98.60;;;;;;5039465;28;20404;-72
2023/03/16 03:37:53;;;;;;;4.28;2.22;;;7.10;99.00;;;;;;5056063;28;20025;-70
2023/03/16 03:40:20;;;;;;;4.45;2.38;;;7.20;98.40;;;;;;5039479;28;20128;-71
2023/03/16 03:42:50;;;;;;;3.60;2.20;;;7.20;99.30;;;;;;5056091;28;20048;-70
2023/03/16 03:45:17;;;;;;;4.75;2.45;;;7.20;98.30;;;;;;5023158;28;20388;-70
2023/03/16 03:47:43;;;;;;;8.90;2.38;;;7.20;97.40;;;;;;5055981;28;20060;-69
2023/03/16 03:50:14;;;;;;;3.83;2.15;;;7.10;99.10;;;;;;5040013;28;20078;-69
2023/03/16 03:52:52;;;;;;;3.42;1.98;;;7.00;99.90;;;;;;5041432;28;20415;-70
2023/03/16 03:55:18;;;;;;;7.47;2.45;;;7.10;99.90;;;;;;5039058;28;20104;-70
2023/03/16 03:57:44;;;;;;;4.45;2.25;;;7.10;99.10;;;;;;5039425;28;20052;-70
2023/03/16 04:00:10;;;;;;;4.07;1.90;;;7.20;99.90;;;;;;5022820;28;20041;-69
2023/03/16 04:02:39;;;;;;;4.60;2.10;;;7.10;99.60;;;;;;5023895;28;20383;-69
2023/03/16 04:05:11;;;;;;;5.40;2.10;;;7.00;99.90;;;;;;5040457;28;20124;-70
2023/03/16 04:07:37;;;;;;;4.40;2.05;;;7.00;99.90;;;;;;5055828;28;20112;-71
2023/03/16 04:10:07;;;;;;;6.35;2.40;;;7.00;99.90;;;;;;5039458;28;20029;-71
2023/03/16 04:12:41;;;;;;;6.45;1.90;;;7.10;99.90;;;;;;5055772;28;20048;-71
2023/03/16 04:15:11;;;;;;;5.60;2.25;;;7.10;99.90;;;;;;5007491;28;20041;-70
2023/03/16 04:17:57;;;;;;;2.90;2.10;;;7.10;99.90;;;;;;5042068;28;20061;-71
2023/03/16 04:20:23;;;;;;;4.35;2.20;;;7.00;99.90;;;;;;5055572;28;20033;-72
2023/03/16 04:22:57;;;;;;;2.97;1.88;;;7.10;99.90;;;;;;5055584;28;20359;-71
2023/03/16 04:25:25;;;;;;;6.03;2.35;;;7.20;99.90;;;;;;5055529;28;20041;-71
2023/03/16 04:27:52;;;;;;;4.50;2.03;;;7.40;96.70;;;;;;5041665;28;20033;-70
2023/03/16 04:30:19;;;;;;;8.60;5.00;;;7.40;94.20;;;;;;5058937;28;20021;-71
2023/03/16 04:32:51;;;;;;;3.53;1.83;;;7.20;95.10;;;;;;5043424;28;20025;-68
2023/03/16 04:35:19;;;;;;;5.18;2.33;;;7.30;97.00;;;;;;5042943;28;20076;-69
2023/03/16 04:37:51;;;;;;;3.17;1.90;;;7.30;96.30;;;;;;5043690;28;20064;-69
2023/03/16 04:40:20;;;;;;;6.70;2.47;;;7.40;94.50;;;;;;5059388;28;20060;-69
2023/03/16 04:42:52;;;;;;;4.32;2.28;;;7.40;95.40;;;;;;5043551;28;20033;-69
2023/03/16 04:45:19;;;;;;;5.10;2.15;;;7.50;94.40;;;;;;5010110;28;20059;-69
2023/03/16 04:47:48;;;;;;;5.18;2.00;;;7.50;90.30;;;;;;5043236;28;20037;-69
2023/03/16 04:50:15;;;;;;;4.72;1.98;;;7.40;91.70;;;;;;5026523;28;20420;-68
2023/03/16 04:52:44;;;;;;;4.53;1.90;;;7.30;95.10;;;;;;5042820;28;20057;-69
2023/03/16 04:55:11;;;;;;;6.30;2.08;;;7.20;95.70;;;;;;5010260;28;20138;-69
2023/03/16 04:57:37;;;;;;;3.38;2.15;;;7.10;96.10;;;;;;5042666;28;20400;-69
2023/03/16 05:00:19;;;;;;;7.82;2.83;;;7.10;98.10;;;;;;5025744;28;20032;-70
2023/03/16 05:02:56;;;;;;;5.22;2.03;;;7.10;99.10;;;;;;5058881;28;20056;-71
2023/03/16 05:05:22;;;;;;;4.05;2.40;;;7.10;99.00;;;;;;5059400;28;20056;-68
2023/03/16 05:07:48;;;;;;;5.70;2.58;;;7.10;99.90;;;;;;5058549;28;20410;-69
2023/03/16 05:10:18;;;;;;;5.03;2.65;;;7.20;98.90;;;;;;5058963;28;20178;-69
2023/03/16 05:12:44;;;;;;;7.13;3.35;;;7.20;98.10;;;;;;5059203;28;20032;-69
2023/03/16 05:15:10;;;;;;;7.50;3.03;;;7.20;97.40;;;;;;5058519;28;20047;-70
2023/03/16 05:17:42;;;;;;;8.30;3.28;;;7.20;98.20;;;;;;5026365;28;20032;-70
2023/03/16 05:20:11;;;;;;;5.45;3.58;;;7.20;97.50;;;;;;5041935;28;20411;-69
2023/03/16 05:22:41;;;;;;;5.20;3.35;;;7.20;97.50;;;;;;5058410;28;20040;-69
2023/03/16 05:25:14;;;;;;;5.95;3.47;;;7.30;94.60;;;;;;5058427;28;20035;-69
2023/03/16 05:27:45;;;;;;;9.52;3.10;;;7.30;95.50;;;;;;5042132;28;20029;-69
2023/03/16 05:30:18;;;;;;;6.15;3.35;;;7.20;96.00;;;;;;5058269;28;20028;-69
2023/03/16 05:32:45;;;;;;;6.90;3.22;;;7.30;96.10;;;;;;5025540;28;20145;-70
2023/03/16 05:35:13;;;;;;;4.15;3.10;;;7.30;93.40;;;;;;5041726;28;20415;-69
2023/03/16 05:37:40;;;;;;;5.18;2.85;;;7.40;94.60;;;;;;5058081;28;20119;-67
2023/03/16 05:40:15;;;;;;;4.50;3.05;;;7.30;90.30;;;;;;5042123;28;20281;-69
2023/03/16 05:42:47;;;;;;;7.05;2.72;;;7.20;92.50;;;;;;5058008;28;20045;-69
2023/03/16 05:45:14;;;;;;;3.83;2.35;;;7.10;90.10;;;;;;5057855;28;20043;-69
2023/03/16 05:47:52;;;;;;;6.65;2.75;;;7.00;93.20;;;;;;5057935;28;20036;-70
2023/03/16 05:50:18;;;;;;;4.03;2.88;;;7.00;93.90;;;;;;5041275;28;20032;-69
2023/03/16 05:52:44;;;;;;;6.90;2.95;;;7.10;92.80;;;;;;5041296;28;20312;-68
2023/03/16 05:55:17;;;;;;;6.25;2.92;;;7.10;92.40;;;;;;5057544;28;20059;-68
2023/03/16 05:57:48;;;;;;;7.25;3.20;;;7.00;92.20;;;;;;5041883;28;20045;-70
2023/03/16 06:00:15;;;;;;;5.28;2.60;;;6.90;95.20;;;;;;5057643;28;20041;-70
2023/03/16 06:02:50;;;;;;;7.40;2.15;;;7.00;96.30;;;;;;5057680;28;20067;-69
2023/03/16 06:05:17;;;;;;;10.10;3.00;;;7.00;92.60;;;;;;5024567;28;20099;-69
2023/03/16 06:07:44;;;;;;;5.00;2.38;;;6.80;93.50;;;;;;5057523;28;20044;-70
2023/03/16 06:10:12;;;;;;;7.43;2.90;;;6.90;96.00;;;;;;5024643;28;20025;-69
2023/03/16 06:12:40;;;;;;;4.63;2.53;;;7.00;95.60;;;;;;5057525;28;20105;-70
2023/03/16 06:15:07;;;;;;;4.70;2.38;;;7.10;89.20;;;;;;5057347;28;20029;-69
2023/03/16 06:17:35;;;;;;;4.47;2.28;;;7.10;91.90;;;;;;5057325;28;20029;-69
2023/03/16 06:20:01;;;;;;;7.10;2.15;;;7.10;82.50;;;;;;5040644;28;20044;-69
2023/03/16 06:22:29;;;;;;;5.43;2.22;;;7.20;82.60;;;;;;5040935;28;20037;-69
2023/03/16 06:24:54;;;;;;;5.43;2.90;;;7.30;76.00;;;;;;5057069;28;20090;-70
2023/03/16 06:27:21;;;;;;;5.70;2.20;;;7.30;76.20;;;;;;5057828;28;20086;-70
2023/03/16 06:30:12;;;;;;;7.20;2.53;;;7.40;73.40;;;;;;5057698;28;20048;-69
2023/03/16 06:32:41;;;;;;;3.83;2.10;;;7.30;66.90;;;;;;5057166;28;20025;-70
2023/03/16 06:35:08;;;;;;;5.30;2.08;;;7.20;73.20;;;;;;5057016;28;20033;-71
2023/03/16 06:37:37;;;;;;;5.13;2.10;;;7.20;67.90;;;;;;5057258;28;20037;-69
2023/03/16 06:40:17;;;;;;;4.07;1.80;;;7.20;66.20;;;;;;5056876;28;20033;-69
2023/03/16 06:42:43;;;;;;;5.72;2.13;;;7.20;66.50;;;;;;5023879;28;20103;-68
2023/03/16 06:45:15;;;;;;;8.00;2.45;;;7.20;64.20;;;;;;5056702;28;20040;-69
2023/03/16 06:47:42;;;;;;;4.40;2.15;;;7.20;61.10;;;;;;5056724;28;20032;-67
2023/03/16 06:50:10;;;;;;;7.57;2.05;;;7.30;64.60;;;;;;5056868;28;20037;-68
2023/03/16 06:52:37;;;;;;;6.43;2.08;;;7.20;60.20;;;;;;5056854;28;20030;-70
2023/03/16 06:55:04;;;;;;;5.22;2.00;;;7.20;56.00;;;;;;5039954;28;20049;-70
2023/03/16 06:57:33;;;;;;;4.88;2.03;;;7.20;62.00;;;;;;5056959;28;20029;-71
2023/03/16 06:59:59;;;;;;;2.53;1.52;;;7.20;55.70;;;;;;5057518;28;20037;-70
2023/03/16 07:02:25;;;;;;;4.25;1.80;;;7.20;56.00;;;;;;5056890;28;20062;-70
2023/03/16 07:04:52;;;;;;;4.00;1.65;;;7.20;53.90;;;;;;5056267;28;20037;-72
2023/03/16 07:07:19;;;;;;;7.30;2.22;;;7.30;61.90;;;;;;5040508;28;20052;-70
2023/03/16 07:09:45;;;;;;;3.67;1.85;;;7.30;53.80;;;;;;5057213;28;20029;-71
2023/03/16 07:12:12;;;;;;;8.10;2.03;;;7.30;52.70;;;;;;5056337;28;20021;-71
2023/03/16 07:14:38;;;;;;;4.32;1.60;;;7.20;47.20;;;;;;5056285;28;20047;-71
2023/03/16 07:17:05;;;;;;;5.97;1.77;;;7.20;53.60;;;;;;5056374;28;20128;-65
2023/03/16 07:19:31;;;;;;;2.90;1.33;;;7.30;50.10;;;;;;5056108;28;20056;-69
2023/03/16 07:22:03;;;;;;;4.32;1.58;;;7.30;46.60;;;;;;5056237;28;20411;-71
2023/03/16 07:24:32;;;;;;;5.78;1.90;;;7.30;49.10;;;;;;5024971;28;20360;-72
2023/03/16 07:26:57;;;;;;;3.33;1.60;;;7.30;43.50;;;;;;5023306;28;20049;-72
2023/03/16 07:29:28;;;;;;;5.85;1.73;;;7.40;50.50;;;;;;5040679;28;20369;-68
2023/03/16 07:31:55;;;;;;;4.05;1.52;;;7.50;46.20;;;;;;5056168;28;20040;-63
2023/03/16 07:34:26;;;;;;;3.45;1.50;;;7.90;47.60;;;;;;5056009;28;20047;-71
2023/03/16 07:36:56;;;;;;;2.90;1.60;;;7.90;23.90;;;;;;5056009;28;20045;-71
2023/03/16 07:39:24;;;;;;;4.20;1.52;;;7.70;24.80;;;;;;5055978;28;20124;-72
2023/03/16 07:41:55;;;;;;;2.50;1.30;;;7.80;29.80;;;;;;5040289;28;20033;-73
2023/03/16 07:44:47;;;;;;;5.67;1.60;;;7.70;22.00;;;;;;5050849;28;20048;-72
2023/03/16 07:47:13;;;;;;;4.63;1.60;;;7.90;29.50;;;;;;5056253;28;20037;-72
2023/03/16 07:49:41;;;;;;;2.00;1.30;;;7.90;14.70;;;;;;5039960;28;20021;-71
2023/03/16 07:52:07;;;;;;;1.92;1.40;;;7.80;23.10;;;;;;5056187;28;20033;-71
2023/03/16 07:54:39;;;;;;;4.60;1.45;;;7.80;19.80;;;;;;5056108;28;20041;-72
2023/03/16 07:57:07;;;;;;;4.60;1.50;;;7.90;21.50;;;;;;5040106;28;20170;-71
2023/03/16 07:59:40;;;;;;;2.72;1.23;;;7.90;12.50;;;;;;5056443;28;20047;-69
2023/03/16 08:02:13;;;;;;;3.78;1.50;;;8.10;12.80;;;;;;5057616;28;20111;-71
2023/03/16 08:04:41;;;;;;;3.58;1.77;;;8.10;5.70;;;;;;5060228;28;20120;-71
2023/03/16 08:07:08;;;;;;;4.18;1.38;;;8.20;11.90;;;;;;5060111;28;20301;-72
2023/03/16 08:09:50;;;;;;;2.53;1.17;;;8.50;1.00;;;;;;5060124;28;20037;-71
2023/03/16 08:12:21;;;;;;;3.53;1.30;;;8.70;1.00;;;;;;5044170;28;20128;-71
2023/03/16 08:14:47;;;;;;;3.53;1.30;;;8.70;1.00;;;;;;5043215;28;20033;-71
2023/03/16 08:17:24;;;;;;;4.10;2.10;;;8.70;1.00;;;;;;5059833;28;20041;-71
2023/03/16 08:19:50;;;;;;;2.95;1.38;;;8.60;1.00;;;;;;5059836;28;20396;-67
2023/03/16 08:22:16;;;;;;;3.47;1.15;;;8.50;1.00;;;;;;5043411;28;20040;-70
2023/03/16 08:24:45;;;;;;;5.03;1.50;;;8.50;1.00;;;;;;5059563;28;20123;-71
2023/03/16 08:27:14;;;;;;;2.53;1.33;;;8.60;1.00;;;;;;5059698;28;20048;-70
2023/03/16 08:29:44;;;;;;;4.90;1.63;;;8.60;1.00;;;;;;5043532;28;20072;-71
2023/03/16 08:32:14;;;;;;;4.10;1.55;;;8.60;1.00;;;;;;5043606;28;20017;-70
2023/03/16 08:34:42;;;;;;;3.40;1.42;;;8.50;1.00;;;;;;5059387;28;20462;-72
2023/03/16 08:37:09;;;;;;;4.40;1.52;;;8.60;1.00;;;;;;5059512;28;20099;-72
2023/03/16 08:39:35;;;;;;;4.57;1.60;;;8.70;1.00;;;;;;5060084;28;20033;-72
2023/03/16 08:42:06;;;;;;;3.22;1.35;;;8.80;1.00;;;;;;5043204;28;20128;-72
2023/03/16 08:44:54;;;;;;;4.28;1.40;;;8.90;1.00;;;;;;5059665;28;20037;-70
2023/03/16 08:47:23;;;;;;;2.92;1.20;;;9.10;1.00;;;;;;5059109;28;20029;-70
2023/03/16 08:49:49;;;;;;;5.75;1.30;;;9.10;1.00;;;;;;5042568;28;20033;-71
2023/03/16 08:52:16;;;;;;;2.83;1.65;;;9.20;1.00;;;;;;5059252;28;20044;-72
2023/03/16 08:54:42;;;;;;;3.60;1.27;;;9.50;1.00;;;;;;5058869;28;20029;-71
2023/03/16 08:57:09;;;;;;;8.25;1.20;;;9.70;1.00;;;;;;5058073;28;20045;-72
2023/03/16 08:59:35;;;;;;;3.05;1.15;;;9.80;1.00;;;;;;5041272;28;20021;-69
2023/03/16 09:02:03;;;;;;;3.33;1.10;;;9.90;1.00;;;;;;5059213;28;20043;-69
2023/03/16 09:04:29;;;;;;;4.60;1.20;;;9.90;1.00;;;;;;5024909;28;20312;-72
2023/03/16 09:06:55;;;;;;;3.33;1.20;;;10.10;1.00;;;;;;5058518;28;20036;-72
2023/03/16 09:09:21;;;;;;;6.20;1.23;;;10.20;1.00;;;;;;5058783;28;20280;-72
2023/03/16 09:11:48;;;;;;;4.22;1.20;;;10.40;1.00;;;;;;5041118;28;20060;-71
2023/03/16 09:14:14;;;;;;;2.80;0.90;;;10.50;1.00;;;;;;5024254;28;20067;-72
2023/03/16 09:16:40;;;;;;;2.53;1.20;;;10.70;1.00;;;;;;5057642;28;20033;-70
2023/03/16 09:19:06;;;;;;;3.97;1.08;;;10.90;1.00;;;;;;5057620;28;20029;-72
2023/03/16 09:21:34;;;;;;;5.85;1.23;;;10.90;1.00;;;;;;5057651;28;20029;-72
2023/03/16 09:24:01;;;;;;;2.63;1.10;;;11.10;1.00;;;;;;5057305;28;20426;-70
2023/03/16 09:26:27;;;;;;;2.67;1.00;;;11.10;1.00;;;;;;5057343;28;20087;-67
2023/03/16 09:28:54;;;;;;;3.38;0.90;;;10.90;1.00;;;;;;5057291;28;20036;-71
2023/03/16 09:31:20;;;;;;;2.90;1.50;;;10.70;1.00;;;;;;5057226;28;20389;-70
2023/03/16 09:33:46;;;;;;;2.72;0.98;;;10.70;1.00;;;;;;5057419;28;20037;-67
2023/03/16 09:36:13;;;;;;;4.25;0.90;;;10.90;99.90;;;;;;5057911;28;20025;-68
2023/03/16 09:38:41;;;;;;;2.78;1.08;;;10.90;99.90;;;;;;5058341;28;20032;-67
2023/03/16 09:41:35;;;;;;;4.10;0.98;;;10.80;99.90;;;;;;5057113;28;20301;-68
2023/03/16 09:44:28;;;;;;;1.77;0.65;;;10.70;99.90;;;;;;5056996;28;20324;-68
2023/03/16 09:46:59;;;;;;;2.13;0.90;;;11.00;99.90;;;;;;5057777;28;20021;-68
2023/03/16 09:49:31;;;;;;;1.52;0.82;;;11.00;25.10;;;;;;5057040;28;20029;-69
2023/03/16 09:52:29;;;;;;;3.25;0.90;;;11.00;1.00;;;;;;5057784;28;20033;-69
2023/03/16 09:55:00;;;;;;;4.75;1.02;;;11.00;1.00;;;;;;4998313;28;1204853;-70
2023/03/16 09:57:30;;;;;;;1.90;0.88;;;11.00;1.00;;;;;;5058552;28;20383;-68
2023/03/16 10:00:12;;;;;;;2.38;0.90;;;10.90;99.90;;;;;;5041051;28;20068;-68
2023/03/16 10:02:54;;;;;;;3.45;0.90;;;11.00;99.90;;;;;;5058448;28;20047;-67
2023/03/16 10:05:22;;;;;;;2.08;0.80;;;11.10;99.90;;;;;;5057583;28;20316;-69
2023/03/16 10:08:15;;;;;;;2.10;0.73;;;11.20;1.00;;;;;;5059005;28;20025;-69
2023/03/16 10:11:12;;;;;;;3.85;0.80;;;11.20;1.00;;;;;;5057597;28;20040;-67
2023/03/16 10:14:06;;;;;;;2.33;1.05;;;11.20;1.00;;;;;;5058860;28;20028;-74
2023/03/16 10:16:45;;;;;;;2.15;1.00;;;11.30;1.00;;;;;;5057757;28;20033;-70
2023/03/16 10:19:27;;;;;;;2.58;0.80;;;11.40;1.00;;;;;;5057351;28;20033;-69
2023/03/16 10:21:57;;;;;;;4.07;0.80;;;11.40;1.00;;;;;;5058155;28;20100;-69
2023/03/16 10:25:07;;;;;;;2.92;0.80;;;11.60;99.90;;;;;;5057563;28;20029;-69
2023/03/16 10:27:38;;;;;;;2.72;0.70;;;11.80;1.00;;;;;;5056886;28;20420;-68
2023/03/16 10:30:32;;;;;;;3.13;0.80;;;12.00;1.00;;;;;;5056611;28;20405;-68
2023/03/16 10:33:18;;;;;;;2.08;1.10;;;12.00;1.00;;;;;;5052244;28;20056;-66
2023/03/16 10:36:05;;;;;;;3.40;0.82;;;12.00;1.00;;;;;;5057827;28;20079;-67
2023/03/16 10:38:45;;;;;;;2.42;0.55;;;12.30;1.00;;;;;;5057800;28;20048;-68
2023/03/16 10:41:17;;;;;;;4.50;0.77;;;12.60;1.00;;;;;;5057013;28;20029;-68
2023/03/16 10:43:51;;;;;;;1.53;0.70;;;13.00;1.00;;;;;;5057675;28;20043;-66
2023/03/16 10:46:18;;;;;;;4.32;0.80;;;13.20;1.00;;;;;;5057727;28;20114;-68
2023/03/16 10:49:00;;;;;;;4.40;0.68;;;13.20;1.00;;;;;;5057604;28;20021;-68
2023/03/16 10:51:29;;;;;;;2.47;0.57;;;13.40;1.00;;;;;;5057094;28;20052;-67
2023/03/16 10:54:09;;;;;;;2.47;0.77;;;13.10;1.00;;;;;;5057405;28;20033;-68
2023/03/16 10:56:35;;;;;;;2.40;0.70;;;13.10;99.90;;;;;;5057428;28;20045;-71
2023/03/16 10:59:14;;;;;;;2.60;1.10;;;13.20;99.90;;;;;;5056811;28;20037;-67
2023/03/16 11:01:48;;;;;;;3.40;0.90;;;13.40;29.30;;;;;;5057254;28;20032;-68
2023/03/16 11:04:16;;;;;;;4.30;0.77;;;13.90;1.00;;;;;;5056528;28;20297;-67
2023/03/16 11:06:55;;;;;;;2.92;0.73;;;13.70;1.00;;;;;;5057692;28;20021;-68
2023/03/16 11:09:31;;;;;;;2.58;0.90;;;13.60;1.00;;;;;;5057293;28;20040;-67
2023/03/16 11:11:58;;;;;;;2.08;0.77;;;13.60;1.00;;;;;;5057346;28;20056;-66
2023/03/16 11:14:27;;;;;;;2.70;0.93;;;13.50;99.90;;;;;;5056411;28;20064;-66
2023/03/16 11:17:01;;;;;;;4.10;0.80;;;13.30;99.90;;;;;;5057176;28;20098;-67
2023/03/16 11:19:30;;;;;;;3.72;0.90;;;13.10;1.00;;;;;;5057773;28;20092;-68
2023/03/16 11:21:58;;;;;;;2.72;0.80;;;13.60;1.00;;;;;;5057115;28;20407;-66
2023/03/16 11:24:27;;;;;;;2.55;0.70;;;13.80;99.90;;;;;;5056931;28;20314;-67
2023/03/16 11:26:57;;;;;;;3.40;0.70;;;14.30;26.40;;;;;;5057015;28;20021;-67
2023/03/16 11:29:35;;;;;;;3.78;0.80;;;14.20;1.00;;;;;;5056173;28;20029;-67
2023/03/16 11:32:04;;;;;;;3.80;0.60;;;14.00;1.00;;;;;;5056605;28;20285;-67
2023/03/16 11:34:31;;;;;;;1.55;0.60;;;14.40;1.00;;;;;;5057059;28;20335;-66
2023/03/16 11:37:15;;;;;;;2.08;0.68;;;14.70;99.90;;;;;;5057162;28;20037;-67
2023/03/16 11:39:48;;;;;;;2.03;0.63;;;14.70;99.90;;;;;;5056110;28;20040;-67
2023/03/16 11:42:27;;;;;;;3.63;0.75;;;15.00;1.00;;;;;;5056743;28;20032;-65
2023/03/16 11:45:14;;;;;;;6.65;0.95;;;15.00;1.00;;;;;;5056673;28;20418;-68
2023/03/16 11:47:42;;;;;;;4.72;0.70;;;14.60;1.00;;;;;;5055919;28;20025;-68
2023/03/16 11:50:32;;;;;;;2.28;0.75;;;14.60;1.00;;;;;;5056455;28;20031;-67
2023/03/16 11:53:21;;;;;;;2.72;0.65;;;14.50;1.00;;;;;;5056052;28;20100;-66
2023/03/16 11:56:28;;;;;;;2.65;0.73;;;14.60;1.00;;;;;;5056283;28;20041;-63
2023/03/16 11:59:03;;;;;;;3.75;0.70;;;14.40;1.00;;;;;;5056124;28;20032;-68
2023/03/16 12:01:57;;;;;;;2.38;0.50;;;14.70;1.00;;;;;;5056637;28;20048;-69
2023/03/16 12:05:01;;;;;;;4.43;0.90;;;15.00;1.00;;;;;;5056475;28;20139;-66
2023/03/16 12:08:03;;;;;;;2.38;0.65;;;15.30;99.90;;;;;;5057058;28;20029;-68
2023/03/16 12:10:37;;;;;;;2.55;0.55;;;15.90;99.90;;;;;;5056562;28;20126;-65
2023/03/16 12:13:32;;;;;;;4.65;0.70;;;16.30;1.00;;;;;;5056179;28;20385;-67
2023/03/16 12:16:03;;;;;;;2.35;0.55;;;16.20;1.00;;;;;;5055857;28;20078;-68
2023/03/16 12:18:33;;;;;;;2.63;0.63;;;16.50;1.00;;;;;;5056605;28;20103;-67
2023/03/16 12:21:03;;;;;;;5.07;0.73;;;16.40;1.00;;;;;;5056356;28;20184;-67
2023/03/16 12:23:37;;;;;;;1.15;0.50;;;16.30;1.00;;;;;;5056427;28;20036;-69
2023/03/16 12:26:03;;;;;;;2.55;0.60;;;16.30;1.00;;;;;;5055487;28;20120;-67
2023/03/16 12:28:33;;;;;;;3.92;0.60;;;16.20;1.00;;;;;;5039428;28;20464;-67
2023/03/16 12:31:26;;;;;;;4.97;0.50;;;16.40;1.00;;;;;;5056461;28;20207;-67
2023/03/16 12:34:07;;;;;;;1.77;0.60;;;16.30;1.00;;;;;;5039198;28;20048;-66
2023/03/16 12:36:55;;;;;;;5.05;0.73;;;16.10;99.90;;;;;;5055963;28;20079;-69
2023/03/16 12:39:39;;;;;;;3.80;0.70;;;15.90;1.00;;;;;;5039051;28;20021;-68
2023/03/16 12:42:05;;;;;;;3.25;0.60;;;16.10;1.00;;;;;;5055904;28;20040;-69
2023/03/16 12:44:46;;;;;;;2.78;0.68;;;16.70;99.90;;;;;;5055314;28;20029;-68
2023/03/16 12:47:24;;;;;;;2.50;0.63;;;16.70;99.90;;;;;;5056286;28;20017;-67
2023/03/16 12:49:50;;;;;;;3.17;0.50;;;16.60;99.90;;;;;;5060302;28;20032;-67
2023/03/16 12:52:17;;;;;;;3.75;0.60;;;16.20;99.90;;;;;;5059190;28;20037;-68
2023/03/16 12:54:52;;;;;;;1.60;0.63;;;16.50;99.90;;;;;;5059586;28;20029;-66
2023/03/16 12:57:19;;;;;;;1.45;0.60;;;16.30;99.90;;;;;;5059928;28;20033;-67
2023/03/16 12:59:49;;;;;;;2.50;0.60;;;16.30;99.90;;;;;;5059675;28;20037;-66
2023/03/16 13:02:24;;;;;;;2.13;0.50;;;16.20;99.90;;;;;;5059673;28;20033;-67
2023/03/16 13:05:00;;;;;;;2.83;0.93;;;16.00;99.90;;;;;;5058867;28;20311;-66
2023/03/16 13:07:29;;;;;;;2.40;0.70;;;16.10;99.90;;;;;;5059722;28;20097;-66
2023/03/16 13:10:07;;;;;;;5.70;0.80;;;16.10;99.90;;;;;;5059564;28;20025;-66
2023/03/16 13:12:37;;;;;;;2.78;0.65;;;16.20;99.90;;;;;;5060077;28;20285;-64
2023/03/16 13:15:21;;;;;;;2.08;0.50;;;16.20;99.90;;;;;;5059341;28;20037;-67
2023/03/16 13:18:07;;;;;;;1.75;0.60;;;15.90;99.90;;;;;;5058668;28;20039;-65
2023/03/16 13:20:47;;;;;;;1.33;0.55;;;16.00;99.90;;;;;;5058768;28;20036;-68